Time;durP1;ratioP1;P1;durP2;ratioP2;P2;SDS_P1;SDS_P2;PMS_P1;PMS_P2;Temp;Humidity;BMP_temperature;BMP_pressure;BME280_temperature;BME280_humidity;BME280_pressure;Samples;Min_cycle;Max_cycle;Signal;HPM_P1;HPM_P2
2023/05/19 00:00:24;;;;;;;3.03;2.60;;;12.90;99.90;;;;;;5070433;28;20227;-74
2023/05/19 00:03:13;;;;;;;3.50;2.10;;;13.00;99.90;;;;;;5081970;28;20220;-73
2023/05/19 00:06:03;;;;;;;2.60;2.13;;;13.10;99.90;;;;;;5075303;28;20555;-73
2023/05/19 00:08:57;;;;;;;3.97;2.08;;;13.00;99.90;;;;;;5073669;28;20231;-74
2023/05/19 00:11:46;;;;;;;3.40;2.13;;;13.00;99.90;;;;;;5067894;28;20307;-73
2023/05/19 00:14:37;;;;;;;4.65;2.17;;;13.00;99.90;;;;;;5105422;28;20223;-74
2023/05/19 00:17:27;;;;;;;3.42;2.00;;;13.00;99.90;;;;;;5080459;28;20840;-73
2023/05/19 00:20:16;;;;;;;2.97;2.00;;;13.10;99.90;;;;;;5076452;28;20236;-73
2023/05/19 00:23:04;;;;;;;3.83;2.05;;;13.00;99.90;;;;;;5078763;28;20352;-74
2023/05/19 00:25:53;;;;;;;3.65;1.63;;;12.80;99.90;;;;;;5065663;28;20304;-73
2023/05/19 00:28:42;;;;;;;3.58;1.98;;;12.70;99.90;;;;;;5079155;28;20230;-73
2023/05/19 00:31:32;;;;;;;4.22;1.58;;;12.70;99.90;;;;;;5067114;28;20647;-73
2023/05/19 00:34:22;;;;;;;4.57;2.17;;;12.70;99.90;;;;;;5080653;28;20690;-73
2023/05/19 00:37:11;;;;;;;1.98;1.70;;;12.80;99.90;;;;;;5083034;28;20227;-73
2023/05/19 00:39:59;;;;;;;2.67;1.85;;;12.80;99.90;;;;;;5081776;28;20360;-73
2023/05/19 00:42:48;;;;;;;3.50;1.92;;;12.50;99.90;;;;;;5082843;28;20234;-73
2023/05/19 00:45:37;;;;;;;2.72;1.67;;;12.70;99.90;;;;;;5075224;28;20235;-72
2023/05/19 00:48:27;;;;;;;2.20;1.80;;;12.60;99.90;;;;;;5080929;28;20224;-71
2023/05/19 00:51:17;;;;;;;2.42;1.63;;;12.60;99.90;;;;;;5076321;28;20583;-71
2023/05/19 00:54:06;;;;;;;4.18;1.75;;;12.70;99.90;;;;;;5085349;28;20982;-72
2023/05/19 00:56:55;;;;;;;3.45;1.80;;;12.60;99.90;;;;;;5081317;28;20285;-72
2023/05/19 00:59:44;;;;;;;5.28;1.73;;;12.50;99.90;;;;;;5069267;28;20235;-72
2023/05/19 01:02:33;;;;;;;4.68;1.95;;;12.60;99.90;;;;;;5088894;28;20557;-73
2023/05/19 01:05:24;;;;;;;3.95;1.83;;;12.60;99.90;;;;;;5080385;28;20509;-73
2023/05/19 01:08:12;;;;;;;4.05;1.80;;;12.50;99.90;;;;;;5090788;28;20228;-71
2023/05/19 01:11:02;;;;;;;2.95;1.77;;;12.40;99.90;;;;;;5085975;28;20223;-73
2023/05/19 01:13:50;;;;;;;4.60;1.80;;;12.40;99.90;;;;;;5076683;28;20220;-74
2023/05/19 01:16:43;;;;;;;2.58;1.75;;;12.30;99.90;;;;;;5090628;28;20367;-71
2023/05/19 01:19:50;;;;;;;2.92;1.58;;;12.40;99.90;;;;;;5100993;28;20223;-73
2023/05/19 01:23:18;;;;;;;2.85;1.70;;;12.40;99.90;;;;;;5075448;28;20745;-73
2023/05/19 01:26:43;;;;;;;3.55;1.60;;;12.40;99.90;;;;;;5071325;28;20219;-72
2023/05/19 01:29:48;;;;;;;2.80;2.00;;;12.40;99.90;;;;;;5053972;28;20734;-74
2023/05/19 01:32:41;;;;;;;3.05;2.10;;;12.40;99.90;;;;;;5083506;28;20742;-72
2023/05/19 01:35:31;;;;;;;2.83;1.77;;;12.40;99.90;;;;;;5076239;28;20318;-73
2023/05/19 01:38:22;;;;;;;3.20;1.90;;;12.40;99.90;;;;;;5084726;28;20231;-73
2023/05/19 01:41:16;;;;;;;3.85;2.10;;;12.40;99.90;;;;;;5076256;28;20347;-72
2023/05/19 01:44:05;;;;;;;2.75;1.80;;;12.40;99.90;;;;;;5085043;28;20804;-73
2023/05/19 01:46:55;;;;;;;3.78;1.92;;;12.50;99.90;;;;;;5071420;28;20856;-72
2023/05/19 01:49:46;;;;;;;3.28;2.00;;;12.50;99.90;;;;;;5079869;28;20223;-73
2023/05/19 01:52:34;;;;;;;3.40;1.90;;;12.50;99.90;;;;;;5085913;28;20223;-73
2023/05/19 01:55:24;;;;;;;3.03;2.10;;;12.60;99.90;;;;;;5070462;28;20349;-73
2023/05/19 01:58:20;;;;;;;5.85;2.40;;;12.50;99.90;;;;;;5077864;28;20588;-73
2023/05/19 02:01:20;;;;;;;3.92;2.10;;;12.60;99.90;;;;;;5072926;28;20307;-72
2023/05/19 02:04:20;;;;;;;4.13;2.00;;;12.60;99.90;;;;;;5073078;28;20261;-72
2023/05/19 02:07:17;;;;;;;5.85;2.03;;;12.60;99.90;;;;;;5071371;28;20243;-73
2023/05/19 02:10:09;;;;;;;2.90;2.33;;;12.60;99.90;;;;;;5081644;28;20224;-73
2023/05/19 02:13:04;;;;;;;5.00;2.30;;;12.50;99.90;;;;;;5074269;28;20354;-74
2023/05/19 02:15:58;;;;;;;5.03;2.10;;;12.50;99.90;;;;;;5066761;28;20228;-73
2023/05/19 02:18:47;;;;;;;3.85;2.30;;;12.60;99.90;;;;;;5072415;28;20220;-73
2023/05/19 02:21:36;;;;;;;3.25;2.20;;;12.60;99.90;;;;;;5076348;28;20381;-72
2023/05/19 02:24:26;;;;;;;4.90;2.40;;;12.60;99.90;;;;;;5078435;28;20224;-72
2023/05/19 02:27:15;;;;;;;3.53;2.20;;;12.70;99.90;;;;;;5082513;28;21025;-73
2023/05/19 02:30:04;;;;;;;3.40;2.17;;;12.60;99.90;;;;;;5080715;28;20247;-74
2023/05/19 02:32:57;;;;;;;3.42;2.25;;;12.60;99.90;;;;;;5082823;28;20288;-74
2023/05/19 02:35:46;;;;;;;4.63;2.70;;;12.60;99.90;;;;;;5065691;28;20231;-73
2023/05/19 02:38:35;;;;;;;4.30;2.20;;;12.50;99.90;;;;;;5063398;28;20224;-73
2023/05/19 02:41:25;;;;;;;3.65;2.60;;;12.50;99.90;;;;;;5083733;28;20597;-72
2023/05/19 02:44:14;;;;;;;5.00;2.47;;;12.60;99.90;;;;;;5079461;28;20227;-73
2023/05/19 02:47:04;;;;;;;2.67;2.28;;;12.50;99.90;;;;;;5079021;28;20228;-72
2023/05/19 02:49:53;;;;;;;4.63;2.72;;;12.40;99.90;;;;;;5070267;28;20235;-73
2023/05/19 02:52:42;;;;;;;5.15;2.70;;;12.40;99.90;;;;;;5076560;28;20222;-73
2023/05/19 02:55:31;;;;;;;4.25;2.72;;;12.20;99.90;;;;;;5077932;28;20660;-73
2023/05/19 02:58:21;;;;;;;4.28;2.72;;;12.40;99.90;;;;;;5065005;28;20231;-73
2023/05/19 03:01:10;;;;;;;5.97;2.47;;;12.40;99.90;;;;;;5079846;28;20353;-72
2023/05/19 03:03:59;;;;;;;3.47;2.33;;;12.30;99.90;;;;;;5080761;28;20345;-73
2023/05/19 03:06:49;;;;;;;4.10;2.90;;;12.30;99.90;;;;;;5102693;27;20262;-73
2023/05/19 03:09:38;;;;;;;4.15;2.58;;;12.40;99.90;;;;;;5065149;28;20227;-73
2023/05/19 03:12:26;;;;;;;5.38;3.28;;;12.30;99.90;;;;;;5069341;28;20230;-72
2023/05/19 03:15:18;;;;;;;5.38;3.15;;;12.30;99.90;;;;;;5068480;28;20223;-73
2023/05/19 03:18:06;;;;;;;4.47;3.08;;;12.30;99.90;;;;;;5070916;28;20306;-73
2023/05/19 03:20:55;;;;;;;3.92;3.05;;;12.30;99.90;;;;;;5065467;28;20235;-73
2023/05/19 03:23:44;;;;;;;4.63;2.80;;;12.40;99.90;;;;;;5071573;28;20227;-73
2023/05/19 03:26:33;;;;;;;3.67;3.20;;;12.40;99.90;;;;;;5071192;28;20223;-73
2023/05/19 03:29:21;;;;;;;5.00;2.92;;;12.30;99.90;;;;;;5080059;28;20266;-73
2023/05/19 03:32:13;;;;;;;7.35;3.38;;;12.50;99.90;;;;;;5066814;28;20364;-72
2023/05/19 03:35:02;;;;;;;6.85;3.45;;;12.30;99.90;;;;;;5082807;28;20742;-72
2023/05/19 03:37:51;;;;;;;4.90;3.33;;;12.40;99.90;;;;;;5081427;28;20357;-73
2023/05/19 03:40:41;;;;;;;5.32;3.38;;;12.40;99.90;;;;;;5082409;28;20238;-72
2023/05/19 03:43:32;;;;;;;5.60;3.30;;;12.50;99.90;;;;;;5080166;28;20245;-72
2023/05/19 03:46:25;;;;;;;5.38;3.38;;;12.20;99.90;;;;;;5068499;28;20264;-73
2023/05/19 03:49:33;;;;;;;5.10;3.55;;;12.10;99.90;;;;;;5071724;28;20956;-73
2023/05/19 03:52:50;;;;;;;9.50;3.85;;;12.10;99.90;;;;;;5082122;27;20975;-73
2023/05/19 03:55:45;;;;;;;5.88;3.40;;;12.00;99.90;;;;;;5081394;28;20231;-72
2023/05/19 03:58:35;;;;;;;5.35;4.00;;;12.00;99.90;;;;;;5074096;28;20722;-73
2023/05/19 04:01:24;;;;;;;6.28;3.85;;;12.00;99.90;;;;;;5082665;28;20353;-73
2023/05/19 04:04:13;;;;;;;4.95;3.38;;;11.90;99.90;;;;;;5080224;28;20235;-72
2023/05/19 04:07:04;;;;;;;5.82;3.58;;;11.80;99.90;;;;;;5082742;28;20223;-71
2023/05/19 04:09:53;;;;;;;4.97;3.83;;;11.90;99.90;;;;;;5074020;28;20219;-73
2023/05/19 04:12:41;;;;;;;6.60;3.85;;;11.90;99.90;;;;;;5084217;28;20537;-74
2023/05/19 04:15:31;;;;;;;6.45;4.00;;;12.00;99.90;;;;;;5086386;28;20770;-74
2023/05/19 04:18:19;;;;;;;4.60;3.95;;;12.10;99.90;;;;;;5081015;28;20235;-74
2023/05/19 04:21:10;;;;;;;8.27;4.30;;;12.10;99.90;;;;;;5079089;28;20211;-73
2023/05/19 04:24:00;;;;;;;5.75;4.43;;;12.20;99.90;;;;;;5077366;28;20352;-74
2023/05/19 04:26:49;;;;;;;4.43;3.80;;;12.20;99.90;;;;;;5077426;28;20220;-74
2023/05/19 04:29:39;;;;;;;4.93;3.67;;;12.20;99.90;;;;;;5077048;28;20235;-73
2023/05/19 04:32:29;;;;;;;5.65;4.15;;;12.30;99.90;;;;;;5078506;28;20749;-72
2023/05/19 04:35:19;;;;;;;7.43;4.18;;;12.10;99.90;;;;;;5074068;28;20321;-73
2023/05/19 04:38:10;;;;;;;5.57;3.67;;;12.20;99.90;;;;;;5084372;28;20231;-73
2023/05/19 04:41:02;;;;;;;5.32;3.53;;;12.20;99.90;;;;;;5085063;28;20241;-72
2023/05/19 04:43:52;;;;;;;4.55;3.78;;;12.00;99.90;;;;;;5072156;28;20251;-72
2023/05/19 04:46:41;;;;;;;6.38;3.90;;;11.90;99.90;;;;;;5072889;28;20658;-71
2023/05/19 04:49:30;;;;;;;6.90;4.00;;;12.00;99.90;;;;;;5076277;28;20227;-74
2023/05/19 04:52:20;;;;;;;6.13;3.90;;;12.00;99.90;;;;;;5074354;28;20299;-71
2023/05/19 04:55:11;;;;;;;4.63;3.60;;;12.10;99.90;;;;;;5081887;28;20235;-72
2023/05/19 04:58:03;;;;;;;5.07;3.13;;;12.00;99.90;;;;;;5075384;28;20223;-72
2023/05/19 05:00:54;;;;;;;5.80;3.90;;;12.00;99.90;;;;;;5079546;28;20362;-72
2023/05/19 05:03:43;;;;;;;7.65;3.60;;;12.00;99.90;;;;;;5073806;28;20232;-72
2023/05/19 05:06:32;;;;;;;3.53;2.90;;;11.90;99.90;;;;;;5086561;28;20219;-72
2023/05/19 05:09:21;;;;;;;4.65;3.30;;;11.80;99.90;;;;;;5086630;28;20219;-72
2023/05/19 05:12:12;;;;;;;4.60;3.67;;;11.80;99.90;;;;;;5075318;28;20296;-72
2023/05/19 05:15:05;;;;;;;6.78;3.88;;;11.80;99.90;;;;;;5077726;28;20728;-73
2023/05/19 05:17:55;;;;;;;5.47;3.30;;;11.90;99.90;;;;;;5077020;28;20643;-70
2023/05/19 05:20:47;;;;;;;6.22;3.63;;;11.90;99.90;;;;;;5084543;28;20227;-72
2023/05/19 05:23:37;;;;;;;5.00;3.10;;;11.90;99.90;;;;;;5078542;28;20232;-72
2023/05/19 05:26:31;;;;;;;4.00;3.47;;;11.90;99.90;;;;;;5100561;27;20220;-74
2023/05/19 05:29:20;;;;;;;6.03;3.30;;;11.80;99.90;;;;;;5068622;28;20733;-72
2023/05/19 05:32:11;;;;;;;5.82;3.40;;;12.00;99.90;;;;;;5084996;28;20846;-72
2023/05/19 05:35:01;;;;;;;3.17;2.88;;;12.10;99.90;;;;;;5067724;28;20307;-70
2023/05/19 05:37:52;;;;;;;5.60;3.20;;;11.90;99.90;;;;;;5106625;27;20222;-72
2023/05/19 05:40:40;;;;;;;5.10;3.00;;;12.00;99.90;;;;;;5105989;27;20292;-73
2023/05/19 05:43:30;;;;;;;5.70;3.28;;;11.90;99.90;;;;;;5105141;27;20235;-73
2023/05/19 05:46:21;;;;;;;4.07;3.00;;;12.10;99.90;;;;;;5078098;28;20938;-72
2023/05/19 05:49:13;;;;;;;6.18;3.10;;;12.10;99.90;;;;;;5082234;28;20310;-73
2023/05/19 05:52:06;;;;;;;4.47;3.00;;;12.20;99.90;;;;;;5074272;28;20572;-72
2023/05/19 05:55:02;;;;;;;5.28;2.90;;;12.10;99.90;;;;;;5069910;28;20308;-73
2023/05/19 05:57:51;;;;;;;4.70;3.28;;;12.10;99.90;;;;;;5066765;28;20595;-72
2023/05/19 06:00:42;;;;;;;5.72;3.47;;;12.10;99.90;;;;;;5068569;28;20702;-72
2023/05/19 06:03:32;;;;;;;4.70;3.28;;;12.10;99.90;;;;;;5067668;28;20251;-74
2023/05/19 06:06:27;;;;;;;8.75;3.97;;;12.20;99.90;;;;;;5074746;28;20303;-73
2023/05/19 06:09:16;;;;;;;6.15;3.30;;;12.30;99.90;;;;;;5075843;28;20227;-73
2023/05/19 06:12:06;;;;;;;8.20;3.65;;;12.30;99.90;;;;;;5064495;28;20235;-74
2023/05/19 06:15:01;;;;;;;5.65;3.45;;;12.20;99.90;;;;;;5080913;28;20219;-73
2023/05/19 06:18:06;;;;;;;5.85;3.33;;;12.40;99.90;;;;;;5075216;28;20234;-75
2023/05/19 06:20:55;;;;;;;4.32;3.30;;;12.30;99.90;;;;;;5082758;28;20302;-75
2023/05/19 06:23:45;;;;;;;8.55;3.20;;;12.20;99.90;;;;;;5104258;27;20693;-73
2023/05/19 06:26:34;;;;;;;3.53;3.05;;;12.20;99.90;;;;;;5068592;28;20211;-73
2023/05/19 06:29:24;;;;;;;6.10;2.90;;;12.00;99.90;;;;;;5073690;28;20753;-73
2023/05/19 06:32:14;;;;;;;5.35;2.95;;;12.10;99.90;;;;;;5072833;28;20231;-73
2023/05/19 06:35:03;;;;;;;6.20;3.13;;;11.80;99.90;;;;;;5073950;28;20216;-73
2023/05/19 06:37:54;;;;;;;6.95;3.13;;;12.00;99.90;;;;;;5078407;28;20219;-74
2023/05/19 06:40:44;;;;;;;6.63;3.92;;;12.10;99.90;;;;;;5075108;28;20215;-73
2023/05/19 06:43:34;;;;;;;5.05;3.38;;;12.30;99.90;;;;;;5071894;28;20281;-73
2023/05/19 06:46:24;;;;;;;6.40;3.20;;;12.40;99.90;;;;;;5072627;28;20219;-74
2023/05/19 06:49:13;;;;;;;7.32;3.95;;;12.20;99.90;;;;;;5082113;28;20246;-73
2023/05/19 06:52:05;;;;;;;5.65;3.47;;;12.20;99.90;;;;;;5081562;28;20221;-72
2023/05/19 06:54:54;;;;;;;5.68;3.08;;;12.30;99.90;;;;;;5076112;28;20228;-73
2023/05/19 06:57:45;;;;;;;6.28;3.33;;;12.40;99.90;;;;;;5065767;28;20228;-73
2023/05/19 07:00:35;;;;;;;5.13;3.40;;;12.30;99.90;;;;;;5073235;28;20235;-75
2023/05/19 07:03:27;;;;;;;4.32;3.47;;;12.40;99.90;;;;;;5072962;28;20672;-74
2023/05/19 07:06:16;;;;;;;5.50;3.58;;;12.50;99.90;;;;;;5074516;28;20269;-74
2023/05/19 07:09:05;;;;;;;5.38;3.20;;;12.30;99.90;;;;;;5081452;28;20231;-73
2023/05/19 07:11:56;;;;;;;7.82;3.90;;;12.30;99.90;;;;;;5067095;28;20246;-73
2023/05/19 07:14:46;;;;;;;7.32;3.78;;;12.40;99.90;;;;;;5081459;28;20246;-74
2023/05/19 07:17:37;;;;;;;6.25;3.80;;;12.40;99.90;;;;;;5072306;28;20799;-74
2023/05/19 07:20:26;;;;;;;7.18;3.83;;;12.50;99.90;;;;;;5075862;28;20235;-72
2023/05/19 07:23:15;;;;;;;8.27;3.55;;;12.40;99.90;;;;;;5073773;28;20227;-74
2023/05/19 07:26:06;;;;;;;13.27;4.20;;;12.30;99.90;;;;;;5076489;28;20718;-74
2023/05/19 07:28:56;;;;;;;6.32;3.70;;;12.40;99.90;;;;;;5070374;28;20231;-74
2023/05/19 07:31:47;;;;;;;9.48;3.80;;;12.60;99.90;;;;;;5100987;28;20235;-73
2023/05/19 07:34:36;;;;;;;5.30;3.35;;;12.70;99.90;;;;;;5082058;28;20220;-74
2023/05/19 07:37:25;;;;;;;9.07;3.90;;;13.00;99.90;;;;;;5082166;28;20296;-72
2023/05/19 07:40:14;;;;;;;9.63;3.55;;;13.10;99.90;;;;;;5077932;28;20357;-74
2023/05/19 07:43:02;;;;;;;7.97;3.85;;;13.10;99.90;;;;;;5068544;28;20258;-73
2023/05/19 07:45:52;;;;;;;5.97;3.47;;;13.10;99.90;;;;;;5075781;28;20226;-75
2023/05/19 07:48:42;;;;;;;8.77;3.40;;;12.80;99.90;;;;;;5073377;28;20264;-74
2023/05/19 07:51:32;;;;;;;5.68;3.83;;;12.60;99.90;;;;;;5081350;28;20227;-74
2023/05/19 07:54:20;;;;;;;11.20;3.92;;;12.80;99.90;;;;;;5079371;28;20226;-74
2023/05/19 07:57:09;;;;;;;8.52;4.20;;;12.70;99.90;;;;;;5066068;28;21072;-74
2023/05/19 07:59:58;;;;;;;5.70;3.30;;;12.90;99.90;;;;;;5077139;28;20306;-74
2023/05/19 08:02:47;;;;;;;8.25;3.58;;;12.70;99.90;;;;;;5042333;28;20219;-74
2023/05/19 08:05:37;;;;;;;10.20;4.22;;;12.80;99.90;;;;;;5081869;28;20720;-73
2023/05/19 08:08:26;;;;;;;10.65;4.32;;;12.80;99.90;;;;;;5066318;28;20751;-73
2023/05/19 08:11:15;;;;;;;9.02;4.07;;;12.80;99.90;;;;;;5049982;28;20231;-73
2023/05/19 08:14:03;;;;;;;10.82;4.57;;;12.60;99.90;;;;;;5091032;28;20215;-73
2023/05/19 08:16:52;;;;;;;9.15;4.60;;;12.70;99.90;;;;;;5085073;28;20292;-72
2023/05/19 08:19:41;;;;;;;8.93;4.38;;;12.90;99.90;;;;;;5052965;28;20697;-74
2023/05/19 08:22:31;;;;;;;9.77;4.57;;;12.90;99.90;;;;;;5060233;28;20236;-73
2023/05/19 08:25:21;;;;;;;12.00;4.82;;;12.90;99.90;;;;;;5062833;28;20668;-72
2023/05/19 08:28:10;;;;;;;14.68;4.57;;;12.80;99.90;;;;;;5062985;28;20270;-73
2023/05/19 08:30:58;;;;;;;11.75;4.53;;;12.60;99.90;;;;;;5058492;28;20299;-74
2023/05/19 08:33:47;;;;;;;8.98;4.60;;;12.80;99.90;;;;;;5055198;28;20217;-74
2023/05/19 08:36:36;;;;;;;11.65;4.57;;;12.80;99.90;;;;;;5059514;28;20215;-74
2023/05/19 08:39:27;;;;;;;14.75;4.70;;;12.70;99.90;;;;;;5058207;28;20373;-75
2023/05/19 08:42:16;;;;;;;12.60;4.80;;;12.80;99.90;;;;;;5063107;28;20307;-75
2023/05/19 08:45:06;;;;;;;13.30;4.72;;;13.00;99.90;;;;;;5060969;28;20845;-72
2023/05/19 08:47:54;;;;;;;11.75;5.10;;;13.00;99.90;;;;;;5066830;28;20232;-75
2023/05/19 08:50:51;;;;;;;11.10;4.60;;;13.10;99.90;;;;;;5066493;28;20231;-73
2023/05/19 08:53:44;;;;;;;10.50;4.28;;;13.10;99.90;;;;;;5061532;28;20216;-72
2023/05/19 08:56:35;;;;;;;11.35;4.53;;;13.20;99.90;;;;;;5051509;28;20672;-73
2023/05/19 08:59:24;;;;;;;12.82;5.03;;;13.00;99.90;;;;;;5058848;28;20703;-73
2023/05/19 09:02:14;;;;;;;9.80;4.05;;;13.00;99.90;;;;;;5063021;28;20365;-74
2023/05/19 09:05:04;;;;;;;15.23;5.03;;;13.00;99.90;;;;;;5060933;28;20753;-72
2023/05/19 09:07:53;;;;;;;13.32;5.55;;;13.10;99.90;;;;;;5054385;28;20333;-73
2023/05/19 09:10:42;;;;;;;16.63;5.35;;;13.30;99.90;;;;;;5067462;28;20239;-73
2023/05/19 09:13:33;;;;;;;12.13;5.15;;;13.30;99.90;;;;;;5065233;28;20232;-73
2023/05/19 09:16:22;;;;;;;14.40;4.85;;;13.40;99.90;;;;;;5079137;28;20376;-72
2023/05/19 09:19:15;;;;;;;13.98;5.25;;;13.60;99.90;;;;;;5082817;28;20243;-72
2023/05/19 09:22:05;;;;;;;13.57;5.78;;;13.60;99.90;;;;;;5082179;28;20635;-73
2023/05/19 09:24:54;;;;;;;8.63;4.68;;;13.60;99.90;;;;;;5081898;28;20257;-72
2023/05/19 09:27:43;;;;;;;12.68;5.00;;;13.70;99.90;;;;;;5088823;28;20228;-72
2023/05/19 09:30:33;;;;;;;17.80;5.10;;;13.70;99.90;;;;;;5083766;28;20237;-72
2023/05/19 09:33:22;;;;;;;12.38;5.05;;;13.60;99.90;;;;;;5079186;28;20300;-70
2023/05/19 09:36:11;;;;;;;13.77;4.97;;;13.70;99.90;;;;;;5068363;28;20228;-73
2023/05/19 09:39:00;;;;;;;16.20;5.75;;;13.80;99.90;;;;;;5087373;28;20316;-72
2023/05/19 09:41:52;;;;;;;16.15;5.20;;;13.80;99.90;;;;;;5086333;28;20227;-72
2023/05/19 09:44:42;;;;;;;12.45;5.10;;;13.80;99.90;;;;;;5078017;28;20232;-73
2023/05/19 09:47:36;;;;;;;14.43;5.25;;;13.70;99.90;;;;;;5070955;28;20211;-74
2023/05/19 09:50:28;;;;;;;15.13;5.47;;;13.60;99.90;;;;;;5077971;28;20219;-73
2023/05/19 09:53:18;;;;;;;14.55;4.95;;;13.50;99.90;;;;;;5083854;28;20306;-73
2023/05/19 09:56:09;;;;;;;19.40;5.57;;;13.60;99.90;;;;;;5083684;28;20230;-73
2023/05/19 09:58:58;;;;;;;13.88;5.82;;;13.70;99.90;;;;;;5081140;28;20239;-73
2023/05/19 10:01:48;;;;;;;19.27;6.60;;;13.70;99.90;;;;;;5085189;28;20219;-72
2023/05/19 10:04:39;;;;;;;16.15;5.55;;;13.80;99.90;;;;;;5076569;28;20246;-73
2023/05/19 10:07:28;;;;;;;14.35;6.28;;;13.70;99.90;;;;;;5076777;28;20307;-73
2023/05/19 10:10:18;;;;;;;11.82;5.22;;;13.80;99.90;;;;;;5074671;28;20227;-73
2023/05/19 10:13:08;;;;;;;17.85;6.18;;;13.90;99.90;;;;;;5066505;28;20226;-74
2023/05/19 10:15:58;;;;;;;21.50;5.95;;;13.80;99.90;;;;;;5083940;28;20237;-72
2023/05/19 10:18:51;;;;;;;14.30;6.47;;;13.80;99.90;;;;;;5083999;28;20602;-72
2023/05/19 10:21:42;;;;;;;14.52;5.90;;;13.90;99.90;;;;;;5081341;28;20230;-73
2023/05/19 10:24:31;;;;;;;13.60;6.15;;;14.00;99.90;;;;;;5084291;28;20634;-73
2023/05/19 10:27:20;;;;;;;16.48;5.88;;;14.20;99.90;;;;;;5105413;27;20230;-72
2023/05/19 10:30:13;;;;;;;17.17;6.03;;;14.20;99.90;;;;;;5078803;28;20240;-73
2023/05/19 10:33:08;;;;;;;14.57;5.90;;;14.20;99.90;;;;;;5082853;28;20741;-72
2023/05/19 10:36:13;;;;;;;16.45;5.90;;;14.30;99.90;;;;;;5075475;28;20301;-72
2023/05/19 10:39:13;;;;;;;14.45;5.85;;;14.40;99.90;;;;;;5080602;28;20441;-73
2023/05/19 10:42:05;;;;;;;15.27;6.07;;;14.50;99.90;;;;;;5072666;28;20306;-72
2023/05/19 10:45:02;;;;;;;19.45;6.93;;;14.50;99.90;;;;;;5075771;28;20643;-72
2023/05/19 10:47:51;;;;;;;13.85;5.43;;;14.40;99.90;;;;;;5087481;28;20227;-71
2023/05/19 10:50:40;;;;;;;15.75;5.88;;;14.50;99.90;;;;;;5086830;28;20215;-71
2023/05/19 10:53:31;;;;;;;18.08;6.22;;;14.50;99.90;;;;;;5078578;28;20302;-72
2023/05/19 10:56:33;;;;;;;13.50;6.35;;;14.60;99.90;;;;;;5080800;28;20756;-72
2023/05/19 10:59:32;;;;;;;22.95;7.40;;;14.90;99.90;;;;;;5079882;28;20235;-71
2023/05/19 11:02:42;;;;;;;12.38;5.78;;;14.80;99.90;;;;;;5083684;28;20215;-72
2023/05/19 11:05:32;;;;;;;17.63;6.38;;;15.10;99.90;;;;;;5072383;28;20227;-71
2023/05/19 11:08:32;;;;;;;16.60;6.40;;;15.00;99.90;;;;;;5077232;28;20306;-70
2023/05/19 11:11:21;;;;;;;17.92;6.43;;;14.80;99.90;;;;;;5083410;28;20299;-72
2023/05/19 11:14:12;;;;;;;18.10;6.78;;;14.70;99.90;;;;;;5068727;28;20227;-72
2023/05/19 11:17:01;;;;;;;12.50;6.03;;;14.80;99.90;;;;;;5071760;28;20278;-72
2023/05/19 11:19:54;;;;;;;13.35;6.03;;;14.80;99.90;;;;;;5077015;28;20223;-73
2023/05/19 11:22:42;;;;;;;14.45;5.97;;;14.90;99.90;;;;;;5074720;28;20219;-73
2023/05/19 11:25:47;;;;;;;16.73;6.95;;;14.90;99.90;;;;;;5072885;28;20219;-72
2023/05/19 11:28:37;;;;;;;14.20;6.30;;;15.00;99.90;;;;;;5097642;27;20282;-72
2023/05/19 11:31:30;;;;;;;14.18;6.18;;;14.90;99.90;;;;;;5082587;28;20280;-74
2023/05/19 11:34:19;;;;;;;16.17;5.90;;;14.90;99.90;;;;;;5074924;28;20721;-72
2023/05/19 11:37:08;;;;;;;14.77;6.35;;;15.10;99.90;;;;;;5079854;28;20223;-73
2023/05/19 11:40:01;;;;;;;14.90;5.88;;;15.30;99.90;;;;;;5098906;28;20245;-73
2023/05/19 11:42:50;;;;;;;13.82;5.45;;;15.30;99.90;;;;;;5083232;28;20368;-73
2023/05/19 11:45:39;;;;;;;10.13;5.55;;;15.40;99.90;;;;;;5078439;28;20231;-72
2023/05/19 11:48:30;;;;;;;14.30;6.07;;;15.20;99.90;;;;;;5077190;28;20215;-72
2023/05/19 11:51:21;;;;;;;12.82;5.07;;;15.20;99.90;;;;;;5080863;28;20364;-73
2023/05/19 11:54:11;;;;;;;12.52;5.82;;;15.00;99.90;;;;;;5080634;28;20235;-73
2023/05/19 11:57:01;;;;;;;12.65;6.05;;;14.80;99.90;;;;;;5081673;28;20215;-71
2023/05/19 11:59:52;;;;;;;11.85;5.38;;;14.80;99.90;;;;;;5075926;28;20247;-73
2023/05/19 12:02:41;;;;;;;10.20;5.10;;;14.90;99.90;;;;;;5082377;28;20280;-72
2023/05/19 12:05:32;;;;;;;12.65;5.38;;;15.00;99.90;;;;;;5074210;28;20231;-75
2023/05/19 12:08:27;;;;;;;11.10;5.53;;;15.00;99.90;;;;;;5083732;28;20219;-72
2023/05/19 12:11:15;;;;;;;12.70;5.70;;;15.00;99.90;;;;;;5066342;28;20253;-74
2023/05/19 12:14:07;;;;;;;10.85;5.45;;;15.20;99.90;;;;;;5074118;28;20387;-73
2023/05/19 12:16:56;;;;;;;10.15;5.30;;;15.30;99.90;;;;;;5076313;28;20256;-70
2023/05/19 12:19:46;;;;;;;12.88;5.63;;;15.20;99.90;;;;;;5071647;28;20331;-72
2023/05/19 12:22:37;;;;;;;9.80;5.18;;;15.00;99.90;;;;;;5082922;28;20825;-72
2023/05/19 12:25:26;;;;;;;8.50;5.07;;;15.00;99.90;;;;;;5069636;28;20308;-73
2023/05/19 12:28:16;;;;;;;9.10;5.78;;;15.10;99.90;;;;;;5076816;28;20658;-73
2023/05/19 12:31:05;;;;;;;12.35;5.45;;;15.10;99.90;;;;;;5082378;28;20247;-72
2023/05/19 12:33:56;;;;;;;11.35;5.75;;;15.20;99.90;;;;;;5088950;28;20227;-72
2023/05/19 12:36:45;;;;;;;9.40;5.38;;;15.20;99.90;;;;;;5087238;28;20799;-73
2023/05/19 12:39:40;;;;;;;15.63;5.13;;;15.10;99.90;;;;;;5080296;28;20387;-72
2023/05/19 12:42:30;;;;;;;9.48;5.55;;;15.20;99.90;;;;;;5081853;28;20321;-73
2023/05/19 12:45:22;;;;;;;12.02;5.30;;;15.10;99.90;;;;;;5083856;28;20275;-74
2023/05/19 12:48:14;;;;;;;11.32;6.20;;;15.20;99.90;;;;;;5080704;28;20293;-75
2023/05/19 12:51:04;;;;;;;10.30;5.32;;;15.20;99.90;;;;;;5076010;28;20220;-73
2023/05/19 12:53:53;;;;;;;14.45;5.57;;;15.20;99.90;;;;;;5087247;28;20935;-75
2023/05/19 12:56:51;;;;;;;12.60;5.63;;;15.40;99.90;;;;;;5088774;28;20713;-73
2023/05/19 12:59:43;;;;;;;10.77;5.30;;;15.50;99.90;;;;;;5088799;28;20239;-73
2023/05/19 13:02:34;;;;;;;9.95;5.03;;;15.50;99.90;;;;;;5080763;28;20224;-72
2023/05/19 13:05:23;;;;;;;9.43;5.43;;;15.40;99.90;;;;;;5077983;28;20710;-74
2023/05/19 13:08:15;;;;;;;8.88;5.40;;;15.40;99.90;;;;;;5079717;28;20228;-74
2023/05/19 13:11:03;;;;;;;10.40;5.60;;;15.20;99.90;;;;;;5083605;28;20691;-72
2023/05/19 13:13:54;;;;;;;9.05;5.72;;;15.20;99.90;;;;;;5087702;28;20550;-74
2023/05/19 13:16:43;;;;;;;8.70;5.45;;;15.30;99.90;;;;;;5084317;28;20227;-73
2023/05/19 13:19:32;;;;;;;11.48;5.40;;;15.40;99.90;;;;;;5080847;28;20310;-73
2023/05/19 13:22:21;;;;;;;8.30;6.00;;;15.30;99.90;;;;;;5087156;28;20342;-74
2023/05/19 13:25:10;;;;;;;8.40;5.50;;;15.20;99.90;;;;;;5087555;28;20854;-70
2023/05/19 13:28:00;;;;;;;8.90;5.75;;;15.20;99.90;;;;;;5086160;28;20281;-74
2023/05/19 13:30:50;;;;;;;10.52;5.97;;;15.40;99.90;;;;;;5080126;28;20261;-73
2023/05/19 13:33:39;;;;;;;14.15;6.22;;;15.50;99.90;;;;;;5085524;28;20227;-74
2023/05/19 13:36:28;;;;;;;11.88;5.65;;;15.40;99.90;;;;;;5082989;28;20265;-73
2023/05/19 13:39:17;;;;;;;10.95;5.88;;;15.40;99.90;;;;;;5089578;28;20234;-71
2023/05/19 13:42:07;;;;;;;13.43;6.43;;;15.50;99.90;;;;;;5087416;28;20230;-72
2023/05/19 13:44:56;;;;;;;10.98;5.88;;;15.50;99.90;;;;;;5084095;28;20216;-75
2023/05/19 13:47:48;;;;;;;12.15;5.57;;;15.50;99.90;;;;;;5076362;28;20335;-74
2023/05/19 13:50:37;;;;;;;12.27;5.18;;;15.50;99.90;;;;;;5083341;28;20227;-74
2023/05/19 13:53:26;;;;;;;9.07;5.00;;;15.50;99.90;;;;;;5085159;28;20237;-74
2023/05/19 13:56:14;;;;;;;7.88;5.82;;;15.50;99.90;;;;;;5088602;28;20236;-74
2023/05/19 13:59:03;;;;;;;15.30;5.43;;;15.40;99.90;;;;;;5078951;28;20231;-74
2023/05/19 14:01:53;;;;;;;10.68;5.60;;;15.20;99.90;;;;;;5081820;28;20797;-73
2023/05/19 14:04:45;;;;;;;11.18;5.65;;;15.20;99.90;;;;;;5070203;28;20220;-74
2023/05/19 14:07:34;;;;;;;9.88;5.53;;;15.10;99.90;;;;;;5078045;28;20921;-74
2023/05/19 14:10:23;;;;;;;12.57;6.05;;;15.20;99.90;;;;;;5078087;28;20228;-73
2023/05/19 14:13:12;;;;;;;17.92;5.88;;;15.10;99.90;;;;;;5071552;28;20694;-73
2023/05/19 14:16:13;;;;;;;11.25;5.78;;;15.00;99.90;;;;;;5079836;28;20235;-72
2023/05/19 14:19:02;;;;;;;13.55;5.68;;;15.20;99.90;;;;;;5086527;28;20529;-75
2023/05/19 14:21:52;;;;;;;12.07;5.88;;;15.40;99.90;;;;;;5073909;28;20274;-74
2023/05/19 14:24:41;;;;;;;9.90;6.07;;;15.20;99.90;;;;;;5078306;28;20360;-71
2023/05/19 14:27:30;;;;;;;10.68;6.25;;;15.10;99.90;;;;;;5085041;28;20230;-72
2023/05/19 14:30:19;;;;;;;13.40;6.18;;;15.10;99.90;;;;;;5087408;28;20277;-73
2023/05/19 14:33:10;;;;;;;12.98;6.00;;;15.20;99.90;;;;;;5083859;28;20592;-74
2023/05/19 14:35:59;;;;;;;14.02;6.03;;;15.30;99.90;;;;;;5079736;28;20223;-74
2023/05/19 14:38:49;;;;;;;10.20;5.50;;;15.40;99.90;;;;;;5078068;28;20216;-74
2023/05/19 14:41:38;;;;;;;11.82;5.93;;;15.50;99.90;;;;;;5085990;28;20231;-73
2023/05/19 14:44:31;;;;;;;10.38;6.88;;;15.50;99.90;;;;;;5071101;28;20236;-74